Pontiac, South Carolina
Current Conditions -  °F | °C
As of 11:55 AM on Friday 21 Nov 2014 (Local Time) from KCDN Reporting Station
Clear Clear  
Wind Chill: 13°   Ceiling: Unl
Heat Index: 13°   Visibility: 9mi
Dew Point: -5°   Wind: 3mph
Humidity: 28%   Direction: 310°NW
Pressure: 30.4"   Gusts: NA
Location:  34.1767°N, 80.8184°W
Report Text: KCDN 211655Z AUTO 31003KT 9SM CLR 13/M05 A3040 RMK AO2 TSNO
Loading
Personal Weather Stations






























Interactive Weather Map New forecast layout! Learn more

10-Day Weather Forecast

Advertisements
Track Severe Weather on mobile